createdAt,value
2017-07-21T00:00:25.450Z,3.00
2017-07-21T00:05:29.409Z,2.70
2017-07-21T00:10:32.591Z,2.77
2017-07-21T00:15:35.793Z,3.17
2017-07-21T00:20:39.772Z,3.20
2017-07-21T00:25:42.973Z,2.93
2017-07-21T00:30:46.158Z,2.50
2017-07-21T00:35:49.379Z,3.00
2017-07-21T00:40:52.551Z,3.30
2017-07-21T00:45:55.766Z,3.27
2017-07-21T00:50:58.946Z,2.90
2017-07-21T00:56:02.937Z,3.10
2017-07-21T01:01:06.113Z,3.00
2017-07-21T01:06:09.318Z,2.90
2017-07-21T01:11:12.610Z,3.50
2017-07-21T01:16:16.630Z,3.43
2017-07-21T01:21:20.573Z,3.43
2017-07-21T01:26:23.751Z,2.77
2017-07-21T01:31:27.724Z,3.10
2017-07-21T01:36:30.921Z,3.10
2017-07-21T01:41:34.097Z,3.40
2017-07-21T01:46:38.054Z,3.33
2017-07-21T01:51:41.217Z,3.27
2017-07-21T01:56:45.149Z,3.30
2017-07-21T02:01:49.107Z,3.10
2017-07-21T02:06:52.324Z,3.23
2017-07-21T02:11:55.502Z,3.50
2017-07-21T02:16:58.724Z,3.47
2017-07-21T02:22:01.917Z,3.50
2017-07-21T02:27:05.111Z,3.90
2017-07-21T02:32:08.309Z,3.70
2017-07-21T02:37:12.254Z,3.50
2017-07-21T02:42:15.451Z,3.90
2017-07-21T02:47:19.447Z,4.70
2017-07-21T02:52:22.597Z,4.30
2017-07-21T02:57:25.790Z,4.50
2017-07-21T03:02:28.993Z,5.37
2017-07-21T03:07:33.101Z,4.30
2017-07-21T03:12:36.295Z,4.47
2017-07-21T03:17:39.470Z,3.83
2017-07-21T03:23:00.704Z,3.60
2017-07-21T03:28:03.873Z,3.70
2017-07-21T03:33:07.063Z,4.23
2017-07-21T03:38:11.031Z,4.17
2017-07-21T03:43:14.237Z,5.10
2017-07-21T03:48:17.409Z,4.03
2017-07-21T03:53:21.357Z,4.10
2017-07-21T03:58:24.554Z,4.50
2017-07-21T04:03:27.777Z,4.33
2017-07-21T04:08:30.959Z,4.53
2017-07-21T04:13:34.916Z,4.23
2017-07-21T04:18:38.097Z,4.63
2017-07-21T04:23:41.296Z,5.23
2017-07-21T04:28:44.484Z,4.10
2017-07-21T04:33:48.488Z,5.20
2017-07-21T04:38:51.681Z,4.30
2017-07-21T04:43:55.141Z,4.33
2017-07-21T04:48:58.328Z,4.10
2017-07-21T04:54:01.539Z,3.83
2017-07-21T04:59:04.737Z,4.23
2017-07-21T05:04:07.977Z,3.50
2017-07-21T05:09:11.176Z,3.80
2017-07-21T05:14:15.165Z,4.23
2017-07-21T05:19:18.384Z,4.10
2017-07-21T05:24:21.587Z,3.37
2017-07-21T05:29:24.782Z,3.73
2017-07-21T05:34:27.999Z,3.60
2017-07-21T05:39:31.197Z,2.90
2017-07-21T05:44:34.363Z,3.20
2017-07-21T05:49:37.554Z,3.63
2017-07-21T05:54:41.504Z,2.70
2017-07-21T05:59:44.688Z,3.07
2017-07-21T06:04:47.905Z,2.40
2017-07-21T06:09:51.097Z,2.77
2017-07-21T06:14:55.039Z,3.27
2017-07-21T06:19:58.245Z,3.17
2017-07-21T06:25:01.479Z,3.73
2017-07-21T06:30:04.663Z,3.60
2017-07-21T06:35:07.856Z,3.13
2017-07-21T06:40:11.051Z,2.30
2017-07-21T06:45:15.009Z,3.10
2017-07-21T06:50:18.179Z,3.20
2017-07-21T06:55:22.146Z,2.30
2017-07-21T07:00:25.340Z,2.63
2017-07-21T07:05:28.540Z,3.40
2017-07-21T07:10:31.769Z,2.20
2017-07-21T07:15:34.956Z,2.57
2017-07-21T07:20:38.127Z,3.00
2017-07-21T07:25:42.083Z,3.00
2017-07-21T07:30:45.269Z,2.50
2017-07-21T07:35:49.257Z,2.70
2017-07-21T07:40:52.462Z,2.20
2017-07-21T07:45:55.636Z,2.80
2017-07-21T07:50:58.837Z,2.60
2017-07-21T07:56:02.021Z,2.30
2017-07-21T08:01:05.974Z,2.50
2017-07-21T08:06:09.189Z,2.10
2017-07-21T08:11:12.382Z,2.20
2017-07-21T08:16:15.566Z,2.00
2017-07-21T08:21:18.754Z,2.23
2017-07-21T08:26:21.957Z,2.00
2017-07-21T08:31:25.154Z,2.10
2017-07-21T08:36:28.341Z,2.10
2017-07-21T08:41:31.573Z,1.83
2017-07-21T08:46:34.782Z,1.70
2017-07-21T08:51:37.966Z,1.77
2017-07-21T08:56:41.150Z,1.80
2017-07-21T09:01:44.349Z,1.90
2017-07-21T09:06:47.592Z,1.70
2017-07-21T09:11:50.805Z,1.70
2017-07-21T09:16:53.989Z,2.33
2017-07-21T09:21:57.293Z,1.53
2017-07-21T09:27:00.490Z,1.77
2017-07-21T09:32:03.953Z,1.90
2017-07-21T09:37:07.139Z,1.90
2017-07-21T09:42:10.335Z,1.73
2017-07-21T09:47:13.556Z,1.57
2017-07-21T09:52:16.769Z,1.90
2017-07-21T09:57:19.956Z,1.97
2017-07-21T10:02:23.312Z,1.43
2017-07-21T10:07:26.498Z,2.07
2017-07-21T10:12:29.796Z,2.40
2017-07-21T10:17:33.075Z,1.93
2017-07-21T10:22:36.338Z,1.87
2017-07-21T10:27:39.525Z,1.90
2017-07-21T10:32:42.727Z,1.57
2017-07-21T10:37:45.947Z,2.30
2017-07-21T10:42:49.128Z,2.50
2017-07-21T10:47:52.314Z,1.70
2017-07-21T10:52:55.520Z,2.00
2017-07-21T10:57:58.685Z,1.80
2017-07-21T11:03:02.657Z,2.60
2017-07-21T11:08:05.853Z,1.90
2017-07-21T11:13:09.040Z,2.40
2017-07-21T11:18:12.209Z,1.83
2017-07-21T11:23:15.417Z,2.10
2017-07-21T11:28:18.609Z,2.23
2017-07-21T11:33:21.811Z,2.00
2017-07-21T11:38:24.997Z,2.50
2017-07-21T11:43:28.282Z,1.70
2017-07-21T11:48:32.243Z,2.30
2017-07-21T11:53:35.441Z,2.60
2017-07-21T11:58:38.644Z,2.50
2017-07-21T12:03:41.851Z,2.30
2017-07-21T12:08:45.065Z,2.30
2017-07-21T12:13:48.269Z,2.60
2017-07-21T12:18:51.470Z,2.23
2017-07-21T12:23:54.700Z,1.90
2017-07-21T12:28:57.898Z,2.30
2017-07-21T12:34:01.187Z,2.57
2017-07-21T12:39:04.378Z,2.20
2017-07-21T12:44:07.589Z,2.40
2017-07-21T12:49:10.792Z,2.40
2017-07-21T12:54:14.033Z,2.10
2017-07-21T12:59:17.249Z,2.87
2017-07-21T13:04:20.517Z,2.07
2017-07-21T13:09:24.466Z,2.53
2017-07-21T13:14:27.665Z,2.13
2017-07-21T13:19:30.847Z,2.60
2017-07-21T13:24:34.019Z,2.67
2017-07-21T13:29:37.237Z,2.30
2017-07-21T13:34:40.471Z,2.50
2017-07-21T13:39:44.668Z,2.37
2017-07-21T13:44:47.865Z,1.90
2017-07-21T13:49:51.019Z,2.20
2017-07-21T13:54:54.232Z,2.47
2017-07-21T13:59:57.426Z,2.60
2017-07-21T14:05:01.383Z,2.50
2017-07-21T14:10:04.609Z,2.43
2017-07-21T14:15:07.810Z,2.10
2017-07-21T14:20:11.006Z,2.57
2017-07-21T14:25:14.218Z,2.80
2017-07-21T14:30:17.435Z,2.60
2017-07-21T14:35:20.661Z,2.80
2017-07-21T14:40:23.854Z,2.93
2017-07-21T14:45:27.057Z,3.20
2017-07-21T14:50:31.162Z,2.80
2017-07-21T14:55:34.365Z,3.13
2017-07-21T15:00:37.565Z,3.37
2017-07-21T15:05:40.787Z,2.97
2017-07-21T15:10:43.979Z,2.57
2017-07-21T15:15:47.192Z,4.47
2017-07-21T15:20:50.390Z,4.40
2017-07-21T15:25:53.600Z,3.40
2017-07-21T15:30:56.825Z,3.07
2017-07-21T15:36:00.120Z,3.10
2017-07-21T15:41:03.438Z,2.73
2017-07-21T15:46:06.666Z,2.90
2017-07-21T15:51:10.191Z,3.57
2017-07-21T15:56:13.394Z,5.00
2017-07-21T16:01:16.598Z,3.00
2017-07-21T16:06:19.755Z,2.80
2017-07-21T16:11:22.964Z,2.97
2017-07-21T16:16:26.146Z,3.90
2017-07-21T16:21:30.101Z,19.70
2017-07-21T16:26:33.307Z,8.23
2017-07-21T16:31:36.603Z,3.67
2017-07-21T16:36:40.582Z,3.90
2017-07-21T16:41:43.762Z,3.93
2017-07-21T16:46:46.939Z,3.60
2017-07-21T16:51:50.161Z,3.87
2017-07-21T16:56:53.345Z,4.30
2017-07-21T17:01:57.318Z,3.60
2017-07-21T17:07:00.506Z,4.20
2017-07-21T17:12:04.611Z,3.67
2017-07-21T17:17:08.575Z,3.73
2017-07-21T17:22:11.790Z,3.40
2017-07-21T17:27:14.982Z,4.13
2017-07-21T17:32:18.196Z,3.87
2017-07-21T17:37:21.389Z,3.50
2017-07-21T17:42:24.642Z,3.37
2017-07-21T17:47:27.818Z,3.20
2017-07-21T17:52:31.008Z,4.07
2017-07-21T17:57:34.225Z,3.20
2017-07-21T18:02:37.441Z,3.37
2017-07-21T18:07:40.609Z,3.40
2017-07-21T18:12:43.802Z,4.10
2017-07-21T18:17:47.026Z,4.30
2017-07-21T18:22:50.238Z,4.03
2017-07-21T18:27:53.432Z,3.10
2017-07-21T18:32:56.741Z,3.37
2017-07-21T18:38:00.720Z,3.67
2017-07-21T18:43:03.917Z,3.50
2017-07-21T18:48:07.100Z,3.60
2017-07-21T18:53:10.280Z,4.47
2017-07-21T18:58:14.214Z,5.20
2017-07-21T19:03:17.447Z,5.93
2017-07-21T19:08:20.650Z,4.27
2017-07-21T19:13:23.886Z,5.20
2017-07-21T19:18:27.081Z,5.90
2017-07-21T19:23:30.269Z,5.33
2017-07-21T19:28:33.503Z,6.50
2017-07-21T19:33:36.737Z,6.23
2017-07-21T19:38:39.963Z,5.60
2017-07-21T19:43:43.965Z,7.97
2017-07-21T19:48:47.173Z,5.97
2017-07-21T19:53:50.383Z,5.60
2017-07-21T19:58:53.618Z,6.10
2017-07-21T20:03:57.677Z,5.73
2017-07-21T20:09:00.914Z,6.43
2017-07-21T20:14:04.243Z,7.80
2017-07-21T20:19:08.285Z,6.20
2017-07-21T20:24:12.267Z,7.67
2017-07-21T20:29:15.513Z,6.73
2017-07-21T20:34:18.760Z,7.40
2017-07-21T20:39:21.938Z,6.97
2017-07-21T20:44:25.197Z,5.90
2017-07-21T20:49:28.461Z,6.40
2017-07-21T20:54:31.684Z,5.80
2017-07-21T20:59:34.965Z,7.00
2017-07-21T21:04:38.922Z,6.37
2017-07-21T21:09:42.175Z,6.10
2017-07-21T21:14:45.384Z,6.07
2017-07-21T21:19:49.398Z,5.30
2017-07-21T21:24:52.565Z,5.87
2017-07-21T21:29:55.793Z,5.70
2017-07-21T21:34:59.006Z,5.73
2017-07-21T21:40:02.206Z,4.70
2017-07-21T21:45:05.414Z,5.53
2017-07-21T21:50:08.631Z,5.37
2017-07-21T21:55:11.937Z,4.63
2017-07-21T22:00:15.146Z,4.97
2017-07-21T22:05:18.360Z,5.47
2017-07-21T22:10:21.569Z,5.90
2017-07-21T22:15:42.578Z,6.07
2017-07-21T22:20:45.794Z,4.33
2017-07-21T22:25:48.986Z,4.10
2017-07-21T22:30:52.177Z,4.17
2017-07-21T22:35:55.416Z,4.40
2017-07-21T22:40:58.603Z,4.97
2017-07-21T22:46:01.823Z,5.00
2017-07-21T22:51:05.050Z,5.13
2017-07-21T22:56:08.353Z,4.60
2017-07-21T23:01:11.557Z,5.10
2017-07-21T23:06:14.758Z,5.50
2017-07-21T23:11:17.944Z,7.27
2017-07-21T23:16:21.121Z,6.33
2017-07-21T23:21:24.298Z,8.40
2017-07-21T23:26:28.265Z,8.40
2017-07-21T23:31:31.461Z,7.97
2017-07-21T23:36:34.634Z,5.37
2017-07-21T23:41:38.610Z,5.10
2017-07-21T23:46:41.806Z,5.70
2017-07-21T23:51:44.974Z,6.00
2017-07-21T23:56:48.914Z,7.00
